Time;durP1;ratioP1;P1;durP2;ratioP2;P2;SDS_P1;SDS_P2;PMS_P1;PMS_P2;Temp;Humidity;BMP_temperature;BMP_pressure;BME280_temperature;BME280_humidity;BME280_pressure;Samples;Min_cycle;Max_cycle;Signal;HPM_P1;HPM_P2
2023/02/20 00:00:02;;;;;;;2.53;1.20;;;26.30;48.90;;;;;;5053081;28;20204;-57
2023/02/20 00:02:33;;;;;;;5.38;1.67;;;26.20;48.90;;;;;;5052974;28;20227;-57
2023/02/20 00:05:03;;;;;;;3.88;1.38;;;26.30;49.10;;;;;;5051000;28;20216;-57
2023/02/20 00:07:34;;;;;;;4.10;1.50;;;26.30;49.00;;;;;;5040209;28;20405;-57
2023/02/20 00:10:07;;;;;;;3.28;1.60;;;26.30;49.10;;;;;;5052980;28;20203;-56
2023/02/20 00:12:38;;;;;;;3.75;1.60;;;26.30;49.00;;;;;;5053021;28;20220;-57
2023/02/20 00:15:10;;;;;;;2.35;1.33;;;26.30;49.10;;;;;;5052731;28;20675;-57
2023/02/20 00:17:40;;;;;;;3.20;1.35;;;26.40;49.10;;;;;;5052469;28;20199;-57
2023/02/20 00:20:12;;;;;;;4.43;1.52;;;26.40;49.20;;;;;;5048976;28;20191;-57
2023/02/20 00:22:43;;;;;;;3.33;1.60;;;26.40;49.20;;;;;;5053082;28;20254;-56
2023/02/20 00:25:16;;;;;;;3.20;1.27;;;26.40;49.20;;;;;;5049528;28;20187;-56
2023/02/20 00:27:47;;;;;;;2.80;1.30;;;26.50;49.20;;;;;;5032923;28;20207;-56
2023/02/20 00:30:19;;;;;;;2.83;1.33;;;26.50;49.20;;;;;;5032797;28;20199;-57
2023/02/20 00:32:51;;;;;;;4.00;1.40;;;26.50;49.20;;;;;;5032621;28;20216;-57
2023/02/20 00:35:22;;;;;;;2.63;1.10;;;26.50;49.20;;;;;;5032484;28;20199;-56
2023/02/20 00:37:53;;;;;;;3.03;1.17;;;26.50;49.20;;;;;;5041519;28;20692;-55
2023/02/20 00:40:27;;;;;;;2.67;1.40;;;26.60;49.30;;;;;;5052383;28;20682;-55
2023/02/20 00:42:58;;;;;;;3.55;1.30;;;26.60;49.40;;;;;;5052436;28;20230;-56
2023/02/20 00:45:28;;;;;;;3.13;1.45;;;26.60;49.30;;;;;;5051834;28;20512;-57
2023/02/20 00:47:59;;;;;;;1.95;1.10;;;26.60;49.30;;;;;;5052290;28;20195;-54
2023/02/20 00:50:30;;;;;;;4.20;1.52;;;26.70;49.40;;;;;;5052344;28;20218;-55
2023/02/20 00:53:00;;;;;;;1.90;1.13;;;26.70;50.00;;;;;;5052400;28;20691;-57
2023/02/20 00:55:33;;;;;;;3.65;1.42;;;26.70;49.40;;;;;;5052135;28;20652;-57
2023/02/20 00:58:03;;;;;;;3.65;1.60;;;26.70;49.50;;;;;;5051662;28;20195;-56
2023/02/20 01:00:34;;;;;;;4.03;1.48;;;26.70;49.50;;;;;;5052340;28;20670;-56
2023/02/20 01:03:05;;;;;;;3.95;1.58;;;26.70;49.50;;;;;;5048913;28;20230;-54
2023/02/20 01:05:36;;;;;;;3.17;1.50;;;26.80;49.60;;;;;;5051924;28;20202;-55
2023/02/20 01:08:06;;;;;;;2.00;1.20;;;26.80;49.50;;;;;;5051844;28;20204;-57
2023/02/20 01:10:39;;;;;;;3.03;1.23;;;26.80;49.50;;;;;;5052049;28;20199;-56
2023/02/20 01:13:10;;;;;;;2.13;1.13;;;26.80;49.50;;;;;;5052161;28;20226;-57
2023/02/20 01:15:40;;;;;;;2.70;1.30;;;26.90;49.60;;;;;;5051792;28;20566;-57
2023/02/20 01:18:11;;;;;;;4.97;1.23;;;26.90;49.60;;;;;;5051719;28;20195;-57
2023/02/20 01:20:42;;;;;;;3.72;1.33;;;26.90;49.70;;;;;;5051751;28;20199;-57
2023/02/20 01:23:13;;;;;;;3.33;1.42;;;26.90;49.70;;;;;;5052044;28;20246;-55
2023/02/20 01:25:45;;;;;;;2.60;1.30;;;27.00;49.70;;;;;;5051782;28;20232;-56
2023/02/20 01:28:16;;;;;;;2.97;1.40;;;27.00;49.70;;;;;;5051715;28;20203;-57
2023/02/20 01:30:47;;;;;;;3.90;1.50;;;27.00;49.80;;;;;;5051342;28;20196;-55
2023/02/20 01:33:17;;;;;;;2.97;1.15;;;27.00;49.70;;;;;;5051488;28;20651;-57
2023/02/20 01:35:48;;;;;;;2.67;1.40;;;27.00;49.70;;;;;;5051520;28;20218;-57
2023/02/20 01:38:19;;;;;;;4.90;1.52;;;27.10;49.70;;;;;;5051598;28;20203;-57
2023/02/20 01:40:52;;;;;;;3.35;1.63;;;27.10;50.00;;;;;;5051654;28;20231;-57
2023/02/20 01:43:23;;;;;;;2.05;1.17;;;27.10;49.90;;;;;;5051817;28;20223;-55
2023/02/20 01:45:53;;;;;;;3.35;1.52;;;27.10;49.90;;;;;;5051598;28;20607;-57
2023/02/20 01:48:26;;;;;;;2.75;1.40;;;27.20;50.00;;;;;;5051418;28;20206;-57
2023/02/20 01:51:01;;;;;;;2.53;1.20;;;27.20;50.00;;;;;;5051139;28;20208;-56
2023/02/20 01:53:32;;;;;;;2.95;1.60;;;27.20;50.00;;;;;;5051334;28;20210;-57
2023/02/20 01:56:09;;;;;;;3.28;1.38;;;27.20;49.90;;;;;;5050868;28;20221;-57
2023/02/20 01:58:44;;;;;;;2.92;1.42;;;27.30;50.00;;;;;;5051152;28;20191;-57
2023/02/20 02:01:15;;;;;;;3.33;1.25;;;27.30;49.90;;;;;;5051466;28;20215;-56
2023/02/20 02:03:48;;;;;;;2.38;1.30;;;27.30;49.80;;;;;;5051313;28;20222;-56
2023/02/20 02:06:19;;;;;;;2.38;1.30;;;27.40;49.80;;;;;;5051016;28;20253;-54
2023/02/20 02:08:50;;;;;;;3.45;1.42;;;27.40;49.90;;;;;;5051361;28;20195;-56
2023/02/20 02:11:25;;;;;;;3.35;1.50;;;27.40;49.90;;;;;;5051388;28;20223;-55
2023/02/20 02:13:56;;;;;;;2.38;1.05;;;27.40;49.80;;;;;;5041384;28;20223;-55
2023/02/20 02:16:34;;;;;;;2.75;1.55;;;27.40;49.90;;;;;;5030848;28;20200;-57
2023/02/20 02:19:19;;;;;;;3.28;1.27;;;27.40;49.90;;;;;;5031009;28;20199;-56
2023/02/20 02:22:21;;;;;;;2.70;1.45;;;27.50;50.00;;;;;;5048411;28;20207;-57
2023/02/20 02:25:26;;;;;;;3.88;1.77;;;27.50;49.90;;;;;;5051102;28;20202;-57
2023/02/20 02:28:45;;;;;;;3.88;1.50;;;27.60;49.90;;;;;;4968122;28;20195;-54
2023/02/20 02:31:58;;;;;;;2.72;1.27;;;27.60;49.70;;;;;;5030893;28;20224;-55
2023/02/20 02:34:54;;;;;;;2.58;1.48;;;27.60;49.60;;;;;;5030960;28;20200;-55
2023/02/20 02:37:29;;;;;;;1.98;1.20;;;27.70;49.60;;;;;;5036554;28;20203;-53
2023/02/20 02:40:05;;;;;;;4.38;1.70;;;27.70;49.60;;;;;;5050998;28;20647;-56
2023/02/20 02:42:43;;;;;;;2.60;1.40;;;27.70;49.70;;;;;;5051071;28;20222;-54
2023/02/20 02:45:19;;;;;;;3.90;1.75;;;27.80;49.80;;;;;;5050996;28;20249;-55
2023/02/20 02:47:56;;;;;;;2.92;1.30;;;27.80;49.90;;;;;;5051028;28;20214;-54
2023/02/20 02:50:31;;;;;;;1.80;1.02;;;27.80;49.90;;;;;;5050838;28;20203;-54
2023/02/20 02:53:05;;;;;;;3.35;1.42;;;27.90;49.90;;;;;;5050995;28;20597;-55
2023/02/20 02:55:36;;;;;;;5.13;1.50;;;27.90;49.90;;;;;;5051064;28;20200;-55
2023/02/20 02:58:07;;;;;;;2.72;1.52;;;27.90;49.90;;;;;;5050644;28;20200;-54
2023/02/20 03:00:43;;;;;;;3.00;1.55;;;27.90;49.80;;;;;;5050376;28;20198;-55
2023/02/20 03:03:19;;;;;;;1.73;1.10;;;28.00;49.90;;;;;;5050395;28;20242;-55
2023/02/20 03:05:53;;;;;;;2.60;1.30;;;28.00;49.80;;;;;;5050608;28;20234;-55
2023/02/20 03:08:33;;;;;;;2.70;1.42;;;28.10;49.70;;;;;;5046170;28;20585;-55
2023/02/20 03:11:07;;;;;;;2.17;1.00;;;28.10;49.60;;;;;;5033879;28;20199;-55
2023/02/20 03:16:36;;;;;;;4.50;1.30;;;28.20;49.50;;;;;;5034519;28;20571;-55
2023/02/20 03:19:12;;;;;;;3.38;1.38;;;28.30;49.50;;;;;;5033912;28;20563;-55
2023/02/20 03:21:47;;;;;;;4.95;1.52;;;28.30;49.50;;;;;;5033396;28;20270;-54
2023/02/20 03:24:21;;;;;;;2.80;1.60;;;28.40;49.60;;;;;;5034025;28;20219;-54
2023/02/20 03:26:52;;;;;;;2.10;1.15;;;28.40;49.60;;;;;;5034024;28;20200;-54
2023/02/20 03:29:29;;;;;;;2.97;1.23;;;28.50;49.70;;;;;;5033897;28;20664;-55
2023/02/20 03:43:24;;;;;;;1.88;1.25;;;28.70;49.60;;;;;;5053459;28;20353;-53
2023/02/20 03:46:01;;;;;;;1.45;1.27;;;28.80;49.60;;;;;;5052789;28;20663;-55
2023/02/20 03:48:43;;;;;;;3.42;1.50;;;28.80;49.50;;;;;;5053738;28;20666;-54
2023/02/20 03:54:02;;;;;;;2.35;1.40;;;28.90;49.40;;;;;;5053992;28;20198;-54
2023/02/20 03:56:40;;;;;;;2.33;1.05;;;28.90;49.30;;;;;;5053622;28;20196;-54
2023/02/20 03:59:17;;;;;;;2.92;1.35;;;29.00;49.30;;;;;;5053276;28;20200;-54
2023/02/20 04:01:50;;;;;;;2.28;1.30;;;29.10;49.40;;;;;;5053185;28;20215;-55
2023/02/20 04:04:24;;;;;;;1.73;1.10;;;29.10;49.80;;;;;;5053184;28;20598;-55
2023/02/20 04:06:57;;;;;;;1.67;1.17;;;29.20;49.30;;;;;;5053000;28;20201;-55
2023/02/20 04:09:32;;;;;;;2.25;1.20;;;29.20;49.20;;;;;;5053211;28;20199;-55
2023/02/20 04:12:11;;;;;;;3.28;1.10;;;29.30;49.30;;;;;;5053058;28;20226;-57
2023/02/20 04:14:42;;;;;;;1.60;0.93;;;29.30;49.20;;;;;;5053292;28;20206;-57
2023/02/20 04:17:16;;;;;;;3.13;1.48;;;29.30;49.20;;;;;;5048108;28;20998;-57
2023/02/20 04:19:46;;;;;;;2.13;1.13;;;29.40;49.20;;;;;;5031999;28;20567;-57
2023/02/20 04:22:28;;;;;;;2.65;1.23;;;29.40;49.10;;;;;;5032386;28;20688;-54
2023/02/20 04:25:02;;;;;;;3.10;1.40;;;29.40;49.10;;;;;;5032804;28;20224;-56
2023/02/20 04:27:35;;;;;;;2.35;1.10;;;29.50;49.10;;;;;;5032520;28;20196;-55
2023/02/20 04:30:06;;;;;;;2.40;1.15;;;29.60;49.10;;;;;;5035039;28;20192;-55
2023/02/20 04:32:37;;;;;;;3.35;1.40;;;29.60;49.00;;;;;;5032859;28;20634;-52
2023/02/20 04:35:08;;;;;;;2.95;1.23;;;29.60;49.00;;;;;;5032844;28;20540;-55
2023/02/20 04:37:39;;;;;;;2.53;1.33;;;29.60;48.90;;;;;;5039767;28;20203;-55
2023/02/20 04:40:10;;;;;;;2.03;1.25;;;29.70;48.80;;;;;;5052423;28;20220;-54
2023/02/20 04:42:43;;;;;;;3.28;1.40;;;29.70;48.70;;;;;;5051994;28;20215;-55
2023/02/20 04:45:13;;;;;;;1.60;1.13;;;29.80;48.70;;;;;;5052372;28;20227;-55
2023/02/20 04:47:44;;;;;;;2.90;1.30;;;29.80;48.60;;;;;;5052464;28;20191;-55
2023/02/20 04:50:21;;;;;;;1.92;1.10;;;29.80;48.50;;;;;;5052394;28;20203;-55
2023/02/20 04:52:51;;;;;;;2.13;1.02;;;29.90;48.60;;;;;;5052247;28;20490;-55
2023/02/20 04:55:22;;;;;;;2.28;1.30;;;29.90;49.20;;;;;;5052317;28;20218;-55
2023/02/20 04:57:57;;;;;;;2.25;1.20;;;29.90;48.60;;;;;;5052238;28;20282;-55
2023/02/20 05:00:28;;;;;;;1.95;1.15;;;30.00;48.60;;;;;;5049377;28;20191;-55
2023/02/20 05:03:00;;;;;;;1.52;0.98;;;30.00;48.50;;;;;;5052186;28;20219;-55
2023/02/20 05:05:31;;;;;;;2.40;1.35;;;30.00;48.50;;;;;;5052158;28;20569;-56
2023/02/20 05:08:03;;;;;;;3.45;1.35;;;30.00;48.60;;;;;;5051499;28;20207;-55
2023/02/20 05:10:35;;;;;;;1.95;1.42;;;30.00;48.50;;;;;;5051496;28;20202;-55
2023/02/20 05:13:08;;;;;;;3.03;1.55;;;30.10;48.70;;;;;;5051321;28;20740;-55
2023/02/20 05:15:38;;;;;;;2.75;1.50;;;30.10;48.60;;;;;;5051809;28;20199;-56
2023/02/20 05:18:09;;;;;;;3.15;1.42;;;30.10;48.60;;;;;;5051928;28;20198;-55
2023/02/20 05:23:26;;;;;;;3.33;1.30;;;30.20;48.60;;;;;;5051877;28;20199;-55
2023/02/20 05:25:57;;;;;;;2.65;1.10;;;30.20;48.50;;;;;;5051328;28;20206;-55
2023/02/20 05:28:29;;;;;;;2.33;1.23;;;30.30;48.40;;;;;;5051361;28;20282;-55
2023/02/20 05:31:00;;;;;;;3.30;1.40;;;30.30;48.40;;;;;;5051058;28;20210;-55
2023/02/20 05:33:31;;;;;;;3.95;1.73;;;30.30;48.20;;;;;;5051508;28;20195;-54
2023/02/20 05:36:01;;;;;;;3.08;1.27;;;30.30;48.10;;;;;;5051576;28;20195;-55
2023/02/20 05:38:32;;;;;;;3.67;1.20;;;30.30;48.20;;;;;;5051057;28;20210;-54
2023/02/20 05:41:03;;;;;;;3.05;1.58;;;30.30;48.10;;;;;;5051313;28;20536;-53
2023/02/20 05:43:35;;;;;;;2.50;1.40;;;30.40;48.20;;;;;;5051279;28;20195;-55
2023/02/20 05:46:06;;;;;;;2.60;1.27;;;30.40;48.20;;;;;;5051204;28;20199;-54
2023/02/20 05:48:37;;;;;;;3.30;1.48;;;30.40;48.20;;;;;;5051162;28;20208;-54
2023/02/20 05:51:08;;;;;;;2.33;1.33;;;30.40;48.10;;;;;;5050994;28;20207;-54
2023/02/20 05:53:38;;;;;;;2.45;0.98;;;30.40;48.10;;;;;;5051469;28;20199;-55
2023/02/20 05:56:09;;;;;;;2.97;1.33;;;30.50;48.20;;;;;;5051488;28;20198;-55
2023/02/20 05:58:44;;;;;;;2.22;1.30;;;30.50;48.20;;;;;;5051411;28;20199;-56
2023/02/20 06:01:20;;;;;;;2.30;1.40;;;30.50;48.20;;;;;;5051229;28;20210;-55
2023/02/20 06:03:51;;;;;;;2.58;1.33;;;30.50;48.20;;;;;;5051417;28;20222;-56
2023/02/20 06:06:22;;;;;;;2.60;1.20;;;30.50;48.10;;;;;;5051139;28;20202;-54
2023/02/20 06:08:53;;;;;;;2.28;1.35;;;30.50;48.10;;;;;;5050745;28;20199;-56
2023/02/20 06:11:23;;;;;;;2.78;1.58;;;30.60;48.10;;;;;;5050914;28;20226;-55
2023/02/20 06:13:56;;;;;;;2.60;1.40;;;30.60;48.10;;;;;;5051157;28;20542;-56
2023/02/20 06:16:28;;;;;;;2.40;1.30;;;30.60;48.10;;;;;;5047877;28;20643;-56
2023/02/20 06:18:59;;;;;;;2.47;1.30;;;30.60;48.00;;;;;;5051232;28;20195;-56
2023/02/20 06:21:30;;;;;;;2.92;1.50;;;30.60;48.10;;;;;;5050881;28;20259;-56
2023/02/20 06:24:01;;;;;;;2.08;1.20;;;30.60;48.10;;;;;;5051095;28;20580;-55
2023/02/20 06:26:31;;;;;;;2.78;1.10;;;30.60;48.00;;;;;;5048791;28;20582;-57
2023/02/20 06:29:05;;;;;;;2.50;1.35;;;30.60;47.90;;;;;;5031082;28;20648;-56
2023/02/20 06:31:36;;;;;;;2.85;1.40;;;30.60;47.90;;;;;;5031085;28;20226;-56
2023/02/20 06:34:07;;;;;;;2.88;1.40;;;30.60;47.90;;;;;;5031319;28;20322;-57
2023/02/20 06:36:39;;;;;;;3.17;1.42;;;30.60;48.00;;;;;;5030899;28;20204;-56
2023/02/20 06:39:11;;;;;;;1.77;0.98;;;30.60;48.10;;;;;;5045118;28;20189;-56
2023/02/20 06:41:43;;;;;;;2.10;1.45;;;30.60;48.10;;;;;;5030669;28;20212;-56
2023/02/20 06:44:15;;;;;;;2.65;1.42;;;30.60;48.10;;;;;;5034414;28;20219;-56
2023/02/20 06:46:46;;;;;;;1.40;1.00;;;30.50;48.00;;;;;;5035035;28;20204;-56
2023/02/20 06:49:17;;;;;;;2.08;1.15;;;30.50;48.00;;;;;;5034598;28;20667;-57
2023/02/20 06:51:47;;;;;;;2.40;1.23;;;30.50;48.00;;;;;;5034015;28;20216;-56
2023/02/20 06:54:20;;;;;;;1.65;1.30;;;30.50;47.90;;;;;;5034276;28;20208;-56
2023/02/20 06:56:51;;;;;;;3.05;1.40;;;30.50;47.90;;;;;;5034750;28;20200;-56
2023/02/20 06:59:24;;;;;;;1.60;1.20;;;30.50;47.80;;;;;;5034518;28;20200;-55
2023/02/20 07:01:54;;;;;;;2.08;1.20;;;30.50;47.80;;;;;;5034182;28;20220;-56
2023/02/20 07:04:27;;;;;;;3.17;1.35;;;30.50;47.70;;;;;;5047047;28;20216;-53
2023/02/20 07:06:58;;;;;;;13.82;3.55;;;30.50;47.60;;;;;;5054116;28;20290;-56
2023/02/20 07:09:29;;;;;;;11.15;3.30;;;30.40;47.40;;;;;;5054085;28;20317;-53
2023/02/20 07:11:59;;;;;;;12.35;3.25;;;30.30;47.50;;;;;;5054077;28;20570;-54
2023/02/20 07:14:32;;;;;;;11.18;3.10;;;30.10;47.70;;;;;;5054149;28;20677;-55
2023/02/20 07:17:03;;;;;;;11.35;3.25;;;30.00;48.00;;;;;;5054128;28;20196;-57
2023/02/20 07:19:33;;;;;;;10.63;2.88;;;29.80;48.10;;;;;;5053907;28;20206;-55
2023/02/20 07:22:04;;;;;;;9.55;2.70;;;29.70;48.20;;;;;;5053779;28;20223;-57
2023/02/20 07:24:35;;;;;;;9.73;3.00;;;29.70;48.30;;;;;;5054312;28;20215;-57
2023/02/20 07:27:06;;;;;;;11.10;3.22;;;29.70;48.40;;;;;;5054042;28;20610;-55
2023/02/20 07:29:40;;;;;;;10.10;2.95;;;29.70;48.50;;;;;;5054089;28;20199;-55
2023/02/20 07:32:10;;;;;;;10.30;2.92;;;29.60;48.50;;;;;;5054022;28;20246;-56
2023/02/20 07:34:41;;;;;;;13.43;2.83;;;29.60;48.50;;;;;;5053648;28;20206;-55
2023/02/20 07:37:12;;;;;;;6.63;2.70;;;29.60;48.50;;;;;;5053499;28;20322;-54
2023/02/20 07:39:43;;;;;;;9.10;2.70;;;29.60;48.60;;;;;;5054448;28;20208;-55
2023/02/20 07:42:13;;;;;;;8.55;2.70;;;29.60;48.60;;;;;;5053324;28;20216;-55
2023/02/20 07:44:47;;;;;;;7.60;2.70;;;29.60;48.60;;;;;;5053182;28;20314;-55
2023/02/20 07:47:18;;;;;;;7.55;2.70;;;29.60;48.60;;;;;;5053302;28;20564;-55
2023/02/20 07:49:49;;;;;;;5.93;2.53;;;29.60;48.60;;;;;;5053500;28;20207;-56
2023/02/20 07:52:19;;;;;;;7.10;2.60;;;29.60;48.50;;;;;;5053435;28;20222;-55
2023/02/20 07:54:50;;;;;;;6.82;2.67;;;29.60;48.50;;;;;;5053506;28;20297;-55
2023/02/20 07:57:21;;;;;;;7.28;2.58;;;29.60;48.50;;;;;;5053680;28;20202;-55
2023/02/20 07:59:53;;;;;;;7.28;2.55;;;29.50;48.40;;;;;;5053551;28;20199;-56
2023/02/20 08:02:24;;;;;;;7.43;2.72;;;29.50;48.40;;;;;;5053266;28;20223;-55
2023/02/20 08:04:55;;;;;;;6.60;2.25;;;29.50;48.40;;;;;;5053245;28;20228;-56
2023/02/20 08:07:25;;;;;;;6.03;2.15;;;29.50;48.40;;;;;;5049787;28;20195;-55
2023/02/20 08:09:56;;;;;;;7.72;2.75;;;29.50;48.40;;;;;;5053400;28;20770;-56
2023/02/20 08:12:27;;;;;;;5.05;2.65;;;29.50;48.40;;;;;;5053239;28;20218;-56
2023/02/20 08:14:59;;;;;;;6.82;2.22;;;29.50;48.30;;;;;;5053189;28;20674;-56
2023/02/20 08:17:33;;;;;;;7.90;2.53;;;29.50;48.30;;;;;;5052846;28;20200;-55
2023/02/20 08:20:04;;;;;;;5.65;2.50;;;29.50;48.30;;;;;;5053017;28;20196;-55
2023/02/20 08:22:40;;;;;;;5.78;2.20;;;29.50;48.30;;;;;;5052716;28;20582;-55
2023/02/20 08:25:11;;;;;;;7.72;2.35;;;29.40;48.20;;;;;;5052763;28;20613;-55
2023/02/20 08:27:46;;;;;;;5.90;2.20;;;29.40;48.20;;;;;;5052781;28;20200;-56
2023/02/20 08:30:22;;;;;;;6.55;2.67;;;29.40;48.10;;;;;;5041827;28;20368;-56
2023/02/20 08:32:53;;;;;;;6.85;2.63;;;29.40;48.20;;;;;;5032934;28;20216;-56
2023/02/20 08:35:25;;;;;;;3.60;1.85;;;29.40;48.10;;;;;;5032903;28;20211;-56
2023/02/20 08:37:56;;;;;;;4.70;2.25;;;29.30;48.00;;;;;;5042487;28;20204;-56
2023/02/20 08:40:26;;;;;;;7.20;2.30;;;29.30;48.00;;;;;;5044928;28;20195;-56
2023/02/20 08:42:57;;;;;;;5.63;2.08;;;29.30;48.10;;;;;;5032723;28;20303;-55
2023/02/20 08:45:30;;;;;;;3.75;1.90;;;29.20;48.00;;;;;;5032687;28;20227;-56
2023/02/20 08:48:01;;;;;;;4.88;2.20;;;29.20;48.00;;;;;;5033282;28;20544;-56
2023/02/20 08:50:32;;;;;;;5.90;2.28;;;29.20;48.00;;;;;;5032582;28;20204;-55
2023/02/20 08:53:02;;;;;;;4.20;1.98;;;29.20;48.00;;;;;;5032347;28;20223;-55
2023/02/20 08:55:34;;;;;;;5.20;1.83;;;29.20;48.00;;;;;;5032407;28;20279;-57
2023/02/20 08:58:05;;;;;;;4.55;1.92;;;29.10;48.00;;;;;;5032386;28;20200;-57
2023/02/20 09:00:38;;;;;;;3.50;1.80;;;29.20;48.00;;;;;;5032325;28;20196;-55
2023/02/20 09:03:08;;;;;;;4.07;1.95;;;29.10;47.90;;;;;;5032289;28;20216;-56
2023/02/20 09:05:40;;;;;;;5.18;2.25;;;29.10;47.90;;;;;;5031500;28;20723;-57
2023/02/20 09:08:11;;;;;;;4.82;1.90;;;29.00;47.90;;;;;;5043826;28;20202;-57
2023/02/20 09:10:42;;;;;;;3.65;1.92;;;29.00;47.80;;;;;;5048760;28;20199;-55
2023/02/20 09:13:12;;;;;;;4.38;1.98;;;29.00;47.80;;;;;;5051771;28;20578;-56
2023/02/20 09:15:45;;;;;;;4.18;1.95;;;29.00;47.80;;;;;;5051861;28;20192;-55
2023/02/20 09:18:17;;;;;;;4.63;2.08;;;28.90;47.70;;;;;;5051848;28;20198;-55
2023/02/20 09:20:48;;;;;;;3.05;1.80;;;28.90;47.70;;;;;;5051584;28;20192;-55
2023/02/20 09:23:20;;;;;;;4.88;2.03;;;28.90;47.70;;;;;;5051581;28;20257;-55
2023/02/20 09:25:51;;;;;;;4.93;1.80;;;28.80;47.60;;;;;;5051413;28;20310;-55
2023/02/20 09:28:22;;;;;;;3.95;2.10;;;28.80;47.60;;;;;;5051949;28;20282;-55
2023/02/20 09:30:56;;;;;;;2.88;1.60;;;28.80;47.60;;;;;;5051710;28;20195;-55
2023/02/20 09:33:27;;;;;;;2.70;1.95;;;28.80;47.60;;;;;;5051601;28;20562;-55
2023/02/20 09:35:58;;;;;;;3.50;1.50;;;28.80;47.60;;;;;;5051500;28;20201;-55
2023/02/20 09:38:29;;;;;;;2.53;1.65;;;28.70;47.50;;;;;;5051252;28;20203;-57
2023/02/20 09:41:01;;;;;;;2.47;1.42;;;28.70;47.50;;;;;;5051331;28;20569;-55
2023/02/20 09:43:42;;;;;;;4.05;1.80;;;28.70;47.50;;;;;;5051474;28;20204;-55
2023/02/20 09:46:17;;;;;;;3.80;2.00;;;28.70;47.40;;;;;;5051284;28;20226;-55
2023/02/20 09:49:00;;;;;;;2.90;1.77;;;28.60;47.30;;;;;;5051045;28;20289;-55
2023/02/20 09:51:34;;;;;;;2.78;1.70;;;28.60;47.30;;;;;;5051591;28;20314;-57
2023/02/20 09:54:08;;;;;;;4.68;2.08;;;28.60;47.30;;;;;;5051531;28;20195;-55
2023/02/20 09:56:40;;;;;;;2.85;1.52;;;28.60;47.30;;;;;;5051535;28;20200;-55
2023/02/20 09:59:16;;;;;;;2.85;1.52;;;28.50;47.20;;;;;;5051465;28;20197;-56
2023/02/20 10:01:56;;;;;;;2.45;1.40;;;28.50;47.20;;;;;;5051317;28;20215;-54
2023/02/20 10:04:31;;;;;;;2.90;1.42;;;28.50;47.20;;;;;;5051395;28;20695;-55
2023/02/20 10:07:08;;;;;;;2.60;1.40;;;28.50;47.30;;;;;;5050757;28;20694;-55
2023/02/20 10:09:40;;;;;;;2.55;1.30;;;28.40;47.20;;;;;;5050801;28;20210;-55
2023/02/20 10:12:18;;;;;;;3.22;1.60;;;28.40;47.20;;;;;;5047649;28;20211;-55
2023/02/20 10:15:04;;;;;;;2.72;1.50;;;28.40;47.20;;;;;;5050826;28;20202;-55
2023/02/20 10:17:45;;;;;;;3.80;1.52;;;28.40;47.30;;;;;;5053281;28;20652;-55
2023/02/20 10:20:21;;;;;;;2.20;1.50;;;28.30;47.10;;;;;;5054510;28;20199;-55
2023/02/20 10:22:59;;;;;;;2.40;1.50;;;28.40;47.20;;;;;;5055546;28;20687;-54
2023/02/20 10:25:36;;;;;;;1.98;1.10;;;28.30;47.10;;;;;;5055534;28;20214;-55
2023/02/20 10:28:10;;;;;;;2.92;1.58;;;28.30;47.10;;;;;;5054489;28;20206;-55
2023/02/20 10:30:45;;;;;;;1.98;1.20;;;28.30;47.20;;;;;;5054857;28;20660;-54
2023/02/20 10:33:26;;;;;;;2.38;1.52;;;28.30;47.10;;;;;;5055117;28;20219;-54
2023/02/20 10:36:01;;;;;;;1.50;1.30;;;28.30;47.10;;;;;;5047922;28;20192;-58
2023/02/20 10:38:37;;;;;;;2.65;1.50;;;28.20;47.00;;;;;;5049846;28;20226;-55
2023/02/20 10:41:11;;;;;;;2.58;1.55;;;28.20;47.10;;;;;;5055041;28;20198;-55
2023/02/20 10:43:48;;;;;;;3.17;1.67;;;28.20;47.10;;;;;;5055104;28;20195;-55
2023/02/20 10:46:23;;;;;;;1.95;1.17;;;28.20;47.10;;;;;;5050694;28;20215;-54
2023/02/20 10:49:01;;;;;;;2.08;1.45;;;28.10;47.10;;;;;;5034955;28;20202;-56
2023/02/20 10:51:36;;;;;;;2.65;1.42;;;28.10;47.10;;;;;;5034978;28;20278;-55
2023/02/20 10:54:11;;;;;;;2.15;1.23;;;28.10;47.10;;;;;;5034191;28;20211;-53
2023/02/20 10:56:46;;;;;;;2.10;1.58;;;28.10;47.10;;;;;;5034558;28;20206;-56
2023/02/20 10:59:25;;;;;;;2.28;1.20;;;28.00;47.00;;;;;;5034742;28;20211;-55
2023/02/20 11:01:59;;;;;;;1.75;1.23;;;28.00;47.00;;;;;;5034453;28;20220;-55
2023/02/20 11:04:37;;;;;;;1.52;1.00;;;28.00;47.00;;;;;;5034420;28;20196;-55
2023/02/20 11:07:11;;;;;;;1.85;1.15;;;28.00;47.00;;;;;;5037280;28;20237;-56
2023/02/20 11:09:43;;;;;;;2.17;1.30;;;28.00;47.00;;;;;;5053737;28;20271;-55
2023/02/20 11:12:27;;;;;;;3.05;1.20;;;28.00;47.00;;;;;;5054062;28;20211;-55
2023/02/20 11:15:01;;;;;;;2.33;1.27;;;28.00;47.00;;;;;;5054346;28;20199;-54
2023/02/20 11:17:33;;;;;;;1.80;1.30;;;27.90;46.90;;;;;;5051570;28;20678;-55
2023/02/20 11:20:06;;;;;;;2.38;1.20;;;27.90;46.90;;;;;;5034420;28;20192;-54
2023/02/20 11:22:47;;;;;;;2.22;1.50;;;27.90;46.90;;;;;;5033804;28;20540;-55
2023/02/20 11:25:20;;;;;;;2.28;1.27;;;27.80;46.80;;;;;;5033711;28;20224;-54
2023/02/20 11:27:53;;;;;;;2.13;1.27;;;27.80;46.80;;;;;;5033695;28;20570;-56
2023/02/20 11:30:31;;;;;;;1.90;1.50;;;27.80;46.90;;;;;;5034176;28;20199;-54
2023/02/20 11:33:08;;;;;;;1.83;1.20;;;27.80;46.90;;;;;;5033246;28;20212;-55
2023/02/20 11:35:41;;;;;;;1.23;1.00;;;27.80;46.90;;;;;;5033619;28;20196;-54
2023/02/20 11:38:29;;;;;;;2.05;1.25;;;27.80;46.90;;;;;;5045790;28;20195;-55
2023/02/20 11:41:20;;;;;;;1.52;1.00;;;27.70;46.90;;;;;;5053658;28;20199;-54
2023/02/20 11:44:05;;;;;;;1.40;1.00;;;27.70;46.90;;;;;;5053357;28;20219;-55
2023/02/20 11:46:36;;;;;;;1.58;0.93;;;27.70;46.80;;;;;;5053523;28;20231;-55
2023/02/20 11:49:07;;;;;;;1.60;1.10;;;27.70;46.80;;;;;;5053567;28;20206;-55
2023/02/20 11:51:42;;;;;;;1.90;1.10;;;27.70;46.80;;;;;;5053353;28;20211;-55
2023/02/20 11:54:17;;;;;;;1.75;1.17;;;27.70;46.80;;;;;;5053494;28;20195;-55
2023/02/20 11:57:01;;;;;;;1.70;1.10;;;27.60;46.80;;;;;;5053395;28;20202;-55
2023/02/20 11:59:35;;;;;;;2.28;1.15;;;27.60;46.70;;;;;;5053243;28;20230;-55
2023/02/20 12:02:29;;;;;;;2.00;1.27;;;27.60;46.70;;;;;;5052979;28;20215;-54
2023/02/20 12:05:11;;;;;;;1.10;0.90;;;27.60;46.80;;;;;;5053110;28;20664;-55
2023/02/20 12:07:45;;;;;;;1.20;0.98;;;27.50;46.70;;;;;;5052942;28;20234;-55
2023/02/20 12:10:40;;;;;;;1.95;1.05;;;27.50;47.30;;;;;;5053489;28;20194;-55
2023/02/20 12:13:15;;;;;;;1.63;1.17;;;27.50;46.80;;;;;;5052807;28;20215;-56
2023/02/20 12:15:49;;;;;;;1.48;0.93;;;27.50;46.80;;;;;;5052842;28;20227;-56
2023/02/20 12:18:46;;;;;;;1.20;1.10;;;27.50;46.80;;;;;;5037782;28;20192;-56
2023/02/20 12:21:27;;;;;;;1.85;1.00;;;27.50;46.80;;;;;;5012579;28;20226;-54
2023/02/20 12:24:19;;;;;;;1.00;0.90;;;27.50;46.80;;;;;;5033292;28;20206;-55
2023/02/20 12:26:55;;;;;;;1.55;1.00;;;27.50;46.80;;;;;;5032830;28;20228;-55
2023/02/20 12:29:39;;;;;;;1.77;0.90;;;27.50;46.80;;;;;;5033060;28;20200;-55
2023/02/20 12:32:31;;;;;;;2.08;1.00;;;27.50;46.80;;;;;;5032681;28;20216;-57
2023/02/20 12:35:24;;;;;;;1.35;0.98;;;27.40;46.70;;;;;;5032949;28;20200;-55
2023/02/20 12:38:14;;;;;;;1.75;1.08;;;27.40;46.70;;;;;;5044607;28;20231;-55
2023/02/20 12:41:06;;;;;;;0.85;0.85;;;27.30;46.60;;;;;;5037108;28;20210;-54
2023/02/20 12:43:47;;;;;;;1.92;1.00;;;27.30;46.60;;;;;;5032376;28;20227;-54
2023/02/20 12:46:23;;;;;;;0.85;0.80;;;27.30;46.60;;;;;;5032376;28;20228;-54
2023/02/20 12:49:19;;;;;;;0.80;0.80;;;27.30;46.60;;;;;;5032644;28;20200;-56
2023/02/20 12:51:54;;;;;;;0.75;0.75;;;27.30;46.70;;;;;;5032018;28;20244;-56
2023/02/20 12:54:35;;;;;;;1.27;0.85;;;27.20;46.70;;;;;;5031744;28;20674;-56
2023/02/20 12:57:17;;;;;;;1.42;0.80;;;27.20;47.30;;;;;;5032062;28;20192;-55
2023/02/20 12:59:58;;;;;;;1.27;1.05;;;27.20;46.70;;;;;;5032055;28;20203;-56
2023/02/20 13:02:34;;;;;;;1.25;0.88;;;27.20;46.70;;;;;;5032000;28;20248;-55
2023/02/20 13:05:07;;;;;;;0.85;0.75;;;27.20;46.70;;;;;;5032111;28;20207;-55
2023/02/20 13:07:44;;;;;;;2.25;1.23;;;27.20;46.70;;;;;;5038566;28;20227;-55
2023/02/20 13:10:18;;;;;;;0.75;0.75;;;27.20;46.60;;;;;;5050034;28;20191;-56
2023/02/20 13:12:51;;;;;;;1.17;0.70;;;27.20;46.70;;;;;;5051777;28;20219;-56
2023/02/20 13:15:38;;;;;;;1.20;0.90;;;27.10;46.60;;;;;;5051662;28;20202;-54
2023/02/20 13:18:20;;;;;;;1.10;1.00;;;27.10;46.60;;;;;;5051806;28;20203;-55
2023/02/20 13:20:53;;;;;;;1.00;0.80;;;27.10;46.60;;;;;;5051983;28;20227;-56
2023/02/20 13:23:32;;;;;;;0.70;0.70;;;27.10;46.60;;;;;;5052086;28;20202;-55
2023/02/20 13:26:03;;;;;;;1.13;0.90;;;27.10;46.60;;;;;;5051455;28;20198;-55
2023/02/20 13:28:46;;;;;;;1.25;0.95;;;27.10;46.70;;;;;;5051781;28;20191;-57
2023/02/20 13:31:19;;;;;;;1.00;0.88;;;27.00;46.60;;;;;;5051703;28;20649;-54
2023/02/20 13:33:52;;;;;;;0.70;0.70;;;27.00;46.60;;;;;;5051267;28;20563;-55
2023/02/20 13:36:43;;;;;;;1.13;0.65;;;27.00;46.60;;;;;;5051258;28;20199;-56
2023/02/20 13:39:46;;;;;;;0.85;0.80;;;27.00;46.70;;;;;;5031442;28;20679;-55
2023/02/20 13:42:31;;;;;;;1.20;0.88;;;26.90;46.60;;;;;;4950933;29;20230;-56